sensor_id;sensor_type;location;lat;lon;timestamp;P1;durP1;ratioP1;P2;durP2;ratioP2
74293;SDS011;64044;59.904;10.738;2023-04-05T00:01:41;5.85;;;2.65;;
74293;SDS011;64044;59.904;10.738;2023-04-05T00:04:07;8.32;;;2.50;;
74293;SDS011;64044;59.904;10.738;2023-04-05T00:06:33;7.53;;;2.25;;
74293;SDS011;64044;59.904;10.738;2023-04-05T00:08:59;6.28;;;2.05;;
74293;SDS011;64044;59.904;10.738;2023-04-05T00:11:28;7.32;;;1.88;;
74293;SDS011;64044;59.904;10.738;2023-04-05T00:13:58;8.68;;;2.22;;
74293;SDS011;64044;59.904;10.738;2023-04-05T00:16:25;6.22;;;2.00;;
74293;SDS011;64044;59.904;10.738;2023-04-05T00:18:52;4.07;;;2.30;;
74293;SDS011;64044;59.904;10.738;2023-04-05T00:21:20;5.07;;;2.30;;
74293;SDS011;64044;59.904;10.738;2023-04-05T00:23:47;14.20;;;2.92;;
74293;SDS011;64044;59.904;10.738;2023-04-05T00:26:15;5.22;;;2.10;;
74293;SDS011;64044;59.904;10.738;2023-04-05T00:28:41;8.93;;;2.03;;
74293;SDS011;64044;59.904;10.738;2023-04-05T00:31:07;6.05;;;2.10;;
74293;SDS011;64044;59.904;10.738;2023-04-05T00:33:33;5.70;;;2.38;;
74293;SDS011;64044;59.904;10.738;2023-04-05T00:38:44;4.82;;;1.52;;
74293;SDS011;64044;59.904;10.738;2023-04-05T00:41:11;3.13;;;1.70;;
74293;SDS011;64044;59.904;10.738;2023-04-05T00:43:37;4.65;;;2.05;;
74293;SDS011;64044;59.904;10.738;2023-04-05T00:46:06;4.75;;;2.63;;
74293;SDS011;64044;59.904;10.738;2023-04-05T00:48:32;5.18;;;1.77;;
74293;SDS011;64044;59.904;10.738;2023-04-05T00:50:59;5.60;;;1.75;;
74293;SDS011;64044;59.904;10.738;2023-04-05T00:53:25;3.80;;;1.80;;
74293;SDS011;64044;59.904;10.738;2023-04-05T00:55:52;6.15;;;1.45;;
74293;SDS011;64044;59.904;10.738;2023-04-05T00:58:18;2.95;;;1.65;;
74293;SDS011;64044;59.904;10.738;2023-04-05T01:00:53;7.37;;;1.50;;
74293;SDS011;64044;59.904;10.738;2023-04-05T01:03:24;7.25;;;1.77;;
74293;SDS011;64044;59.904;10.738;2023-04-05T01:06:03;4.97;;;1.80;;
74293;SDS011;64044;59.904;10.738;2023-04-05T01:08:54;3.67;;;1.48;;
74293;SDS011;64044;59.904;10.738;2023-04-05T01:11:29;2.47;;;1.35;;
74293;SDS011;64044;59.904;10.738;2023-04-05T01:13:59;6.43;;;1.65;;
74293;SDS011;64044;59.904;10.738;2023-04-05T01:16:26;2.88;;;1.27;;
74293;SDS011;64044;59.904;10.738;2023-04-05T01:18:52;4.38;;;1.65;;
74293;SDS011;64044;59.904;10.738;2023-04-05T01:27:01;3.33;;;1.38;;
74293;SDS011;64044;59.904;10.738;2023-04-05T01:35:08;4.28;;;1.40;;
74293;SDS011;64044;59.904;10.738;2023-04-05T01:40:09;6.30;;;1.48;;
74293;SDS011;64044;59.904;10.738;2023-04-05T01:42:35;2.85;;;1.83;;
74293;SDS011;64044;59.904;10.738;2023-04-05T01:45:01;3.72;;;1.60;;
74293;SDS011;64044;59.904;10.738;2023-04-05T01:47:27;4.15;;;1.27;;
74293;SDS011;64044;59.904;10.738;2023-04-05T01:49:53;7.40;;;1.83;;
74293;SDS011;64044;59.904;10.738;2023-04-05T01:52:19;6.28;;;1.67;;
74293;SDS011;64044;59.904;10.738;2023-04-05T01:54:44;5.50;;;1.50;;
74293;SDS011;64044;59.904;10.738;2023-04-05T01:57:10;3.33;;;1.40;;
74293;SDS011;64044;59.904;10.738;2023-04-05T01:59:36;5.05;;;1.70;;
74293;SDS011;64044;59.904;10.738;2023-04-05T02:02:02;5.30;;;1.40;;
74293;SDS011;64044;59.904;10.738;2023-04-05T02:04:28;3.10;;;1.38;;
74293;SDS011;64044;59.904;10.738;2023-04-05T02:06:53;2.47;;;1.52;;
74293;SDS011;64044;59.904;10.738;2023-04-05T02:09:19;2.80;;;1.10;;
74293;SDS011;64044;59.904;10.738;2023-04-05T02:11:45;4.70;;;1.55;;
74293;SDS011;64044;59.904;10.738;2023-04-05T02:14:11;3.38;;;1.35;;
74293;SDS011;64044;59.904;10.738;2023-04-05T02:16:37;1.98;;;1.40;;
74293;SDS011;64044;59.904;10.738;2023-04-05T02:19:03;4.20;;;1.50;;
74293;SDS011;64044;59.904;10.738;2023-04-05T02:21:30;2.92;;;1.17;;
74293;SDS011;64044;59.904;10.738;2023-04-05T02:23:55;3.90;;;1.63;;
74293;SDS011;64044;59.904;10.738;2023-04-05T02:26:21;2.03;;;1.20;;
74293;SDS011;64044;59.904;10.738;2023-04-05T02:28:47;3.60;;;1.38;;
74293;SDS011;64044;59.904;10.738;2023-04-05T02:31:13;4.25;;;1.58;;
74293;SDS011;64044;59.904;10.738;2023-04-05T02:33:39;2.97;;;1.50;;
74293;SDS011;64044;59.904;10.738;2023-04-05T02:36:09;3.72;;;1.42;;
74293;SDS011;64044;59.904;10.738;2023-04-05T02:38:37;2.17;;;1.25;;
74293;SDS011;64044;59.904;10.738;2023-04-05T02:41:03;3.55;;;1.33;;
74293;SDS011;64044;59.904;10.738;2023-04-05T02:43:32;1.73;;;1.33;;
74293;SDS011;64044;59.904;10.738;2023-04-05T02:45:59;4.63;;;1.60;;
74293;SDS011;64044;59.904;10.738;2023-04-05T02:48:25;3.28;;;1.30;;
74293;SDS011;64044;59.904;10.738;2023-04-05T02:50:50;4.68;;;1.58;;
74293;SDS011;64044;59.904;10.738;2023-04-05T02:53:16;3.22;;;1.52;;
74293;SDS011;64044;59.904;10.738;2023-04-05T02:55:42;4.20;;;1.35;;
74293;SDS011;64044;59.904;10.738;2023-04-05T02:58:21;2.53;;;1.48;;
74293;SDS011;64044;59.904;10.738;2023-04-05T03:00:48;2.10;;;1.40;;
74293;SDS011;64044;59.904;10.738;2023-04-05T03:03:20;5.68;;;1.50;;
74293;SDS011;64044;59.904;10.738;2023-04-05T03:05:47;4.38;;;1.77;;
74293;SDS011;64044;59.904;10.738;2023-04-05T03:08:16;1.65;;;1.23;;
74293;SDS011;64044;59.904;10.738;2023-04-05T03:10:47;4.28;;;1.60;;
74293;SDS011;64044;59.904;10.738;2023-04-05T03:13:15;5.57;;;1.15;;
74293;SDS011;64044;59.904;10.738;2023-04-05T03:15:41;2.67;;;1.40;;
74293;SDS011;64044;59.904;10.738;2023-04-05T03:18:07;3.58;;;1.33;;
74293;SDS011;64044;59.904;10.738;2023-04-05T03:20:33;2.85;;;1.10;;
74293;SDS011;64044;59.904;10.738;2023-04-05T03:23:04;6.47;;;1.73;;
74293;SDS011;64044;59.904;10.738;2023-04-05T03:25:32;4.32;;;1.30;;
74293;SDS011;64044;59.904;10.738;2023-04-05T03:28:00;3.03;;;1.20;;
74293;SDS011;64044;59.904;10.738;2023-04-05T03:30:29;5.45;;;1.70;;
74293;SDS011;64044;59.904;10.738;2023-04-05T03:32:59;3.45;;;1.42;;
74293;SDS011;64044;59.904;10.738;2023-04-05T03:35:26;5.63;;;1.23;;
74293;SDS011;64044;59.904;10.738;2023-04-05T03:37:53;3.03;;;1.48;;
74293;SDS011;64044;59.904;10.738;2023-04-05T03:40:19;2.70;;;1.40;;
74293;SDS011;64044;59.904;10.738;2023-04-05T03:42:46;2.85;;;1.35;;
74293;SDS011;64044;59.904;10.738;2023-04-05T03:45:12;2.42;;;1.10;;
74293;SDS011;64044;59.904;10.738;2023-04-05T03:47:37;3.83;;;1.40;;
74293;SDS011;64044;59.904;10.738;2023-04-05T03:50:03;4.93;;;1.50;;
74293;SDS011;64044;59.904;10.738;2023-04-05T03:52:29;3.45;;;1.30;;
74293;SDS011;64044;59.904;10.738;2023-04-05T03:54:55;4.55;;;1.63;;
74293;SDS011;64044;59.904;10.738;2023-04-05T03:57:21;6.28;;;1.80;;
74293;SDS011;64044;59.904;10.738;2023-04-05T03:59:46;3.90;;;1.83;;
74293;SDS011;64044;59.904;10.738;2023-04-05T04:02:12;6.72;;;2.00;;
74293;SDS011;64044;59.904;10.738;2023-04-05T04:04:38;2.78;;;1.83;;
74293;SDS011;64044;59.904;10.738;2023-04-05T04:07:05;4.32;;;2.00;;
74293;SDS011;64044;59.904;10.738;2023-04-05T04:09:30;4.63;;;1.67;;
74293;SDS011;64044;59.904;10.738;2023-04-05T04:11:56;10.30;;;2.25;;
74293;SDS011;64044;59.904;10.738;2023-04-05T04:14:22;3.67;;;1.67;;
74293;SDS011;64044;59.904;10.738;2023-04-05T04:16:48;7.65;;;1.65;;
74293;SDS011;64044;59.904;10.738;2023-04-05T04:19:16;6.35;;;1.67;;
74293;SDS011;64044;59.904;10.738;2023-04-05T04:21:42;5.75;;;1.52;;
74293;SDS011;64044;59.904;10.738;2023-04-05T04:24:19;5.05;;;1.42;;
74293;SDS011;64044;59.904;10.738;2023-04-05T04:26:45;7.70;;;2.03;;
74293;SDS011;64044;59.904;10.738;2023-04-05T04:29:11;6.75;;;1.67;;
74293;SDS011;64044;59.904;10.738;2023-04-05T04:31:37;10.07;;;2.65;;
74293;SDS011;64044;59.904;10.738;2023-04-05T04:34:04;4.45;;;1.15;;
74293;SDS011;64044;59.904;10.738;2023-04-05T04:36:30;6.68;;;1.65;;
74293;SDS011;64044;59.904;10.738;2023-04-05T04:38:59;5.45;;;1.08;;
74293;SDS011;64044;59.904;10.738;2023-04-05T04:43:58;2.30;;;1.35;;
74293;SDS011;64044;59.904;10.738;2023-04-05T04:46:27;4.50;;;1.35;;
74293;SDS011;64044;59.904;10.738;2023-04-05T04:48:55;4.05;;;1.65;;
74293;SDS011;64044;59.904;10.738;2023-04-05T04:51:21;4.85;;;2.30;;
74293;SDS011;64044;59.904;10.738;2023-04-05T04:53:47;6.32;;;1.90;;
74293;SDS011;64044;59.904;10.738;2023-04-05T04:56:13;8.40;;;2.38;;
74293;SDS011;64044;59.904;10.738;2023-04-05T04:58:38;7.00;;;3.10;;
74293;SDS011;64044;59.904;10.738;2023-04-05T05:01:07;7.32;;;3.20;;
74293;SDS011;64044;59.904;10.738;2023-04-05T05:03:36;4.78;;;2.35;;
74293;SDS011;64044;59.904;10.738;2023-04-05T05:06:05;3.97;;;2.05;;
74293;SDS011;64044;59.904;10.738;2023-04-05T05:08:31;5.40;;;1.52;;
74293;SDS011;64044;59.904;10.738;2023-04-05T05:10:57;6.32;;;1.80;;
74293;SDS011;64044;59.904;10.738;2023-04-05T05:13:22;4.55;;;1.70;;
74293;SDS011;64044;59.904;10.738;2023-04-05T05:15:48;9.80;;;2.45;;
74293;SDS011;64044;59.904;10.738;2023-04-05T05:18:14;4.07;;;1.55;;
74293;SDS011;64044;59.904;10.738;2023-04-05T05:20:40;3.03;;;1.33;;
74293;SDS011;64044;59.904;10.738;2023-04-05T05:23:06;24.25;;;2.72;;
74293;SDS011;64044;59.904;10.738;2023-04-05T05:25:32;9.15;;;2.03;;
74293;SDS011;64044;59.904;10.738;2023-04-05T05:27:58;2.83;;;1.55;;
74293;SDS011;64044;59.904;10.738;2023-04-05T05:30:24;4.63;;;1.42;;
74293;SDS011;64044;59.904;10.738;2023-04-05T05:32:51;4.40;;;1.67;;
74293;SDS011;64044;59.904;10.738;2023-04-05T05:35:17;4.60;;;1.95;;
74293;SDS011;64044;59.904;10.738;2023-04-05T05:37:42;7.30;;;2.17;;
74293;SDS011;64044;59.904;10.738;2023-04-05T05:40:08;11.10;;;2.72;;
74293;SDS011;64044;59.904;10.738;2023-04-05T05:42:37;4.78;;;1.60;;
74293;SDS011;64044;59.904;10.738;2023-04-05T05:45:04;3.92;;;1.70;;
74293;SDS011;64044;59.904;10.738;2023-04-05T05:47:30;2.58;;;1.45;;
74293;SDS011;64044;59.904;10.738;2023-04-05T05:49:56;2.53;;;1.55;;
74293;SDS011;64044;59.904;10.738;2023-04-05T05:52:22;3.50;;;1.40;;
74293;SDS011;64044;59.904;10.738;2023-04-05T05:54:48;3.45;;;1.70;;
74293;SDS011;64044;59.904;10.738;2023-04-05T05:57:13;5.72;;;2.20;;
74293;SDS011;64044;59.904;10.738;2023-04-05T05:59:39;4.28;;;1.50;;
74293;SDS011;64044;59.904;10.738;2023-04-05T06:02:05;6.13;;;1.50;;
74293;SDS011;64044;59.904;10.738;2023-04-05T06:04:32;3.20;;;1.45;;
74293;SDS011;64044;59.904;10.738;2023-04-05T06:06:57;4.03;;;1.88;;
74293;SDS011;64044;59.904;10.738;2023-04-05T06:09:23;5.03;;;1.88;;
74293;SDS011;64044;59.904;10.738;2023-04-05T06:11:52;9.65;;;1.70;;
74293;SDS011;64044;59.904;10.738;2023-04-05T06:14:18;4.03;;;2.38;;
74293;SDS011;64044;59.904;10.738;2023-04-05T06:16:44;6.68;;;2.45;;
74293;SDS011;64044;59.904;10.738;2023-04-05T06:19:10;4.63;;;1.95;;
74293;SDS011;64044;59.904;10.738;2023-04-05T06:21:36;6.32;;;1.80;;
74293;SDS011;64044;59.904;10.738;2023-04-05T06:24:01;8.60;;;2.08;;
74293;SDS011;64044;59.904;10.738;2023-04-05T06:26:27;3.15;;;1.70;;
74293;SDS011;64044;59.904;10.738;2023-04-05T06:28:54;6.22;;;1.85;;
74293;SDS011;64044;59.904;10.738;2023-04-05T06:31:24;6.68;;;2.10;;
74293;SDS011;64044;59.904;10.738;2023-04-05T06:33:51;5.30;;;1.85;;
74293;SDS011;64044;59.904;10.738;2023-04-05T06:36:17;3.97;;;1.45;;
74293;SDS011;64044;59.904;10.738;2023-04-05T06:38:43;7.40;;;1.70;;
74293;SDS011;64044;59.904;10.738;2023-04-05T06:41:09;3.92;;;1.75;;
74293;SDS011;64044;59.904;10.738;2023-04-05T06:43:34;3.30;;;1.77;;
74293;SDS011;64044;59.904;10.738;2023-04-05T06:46:00;4.28;;;1.63;;
74293;SDS011;64044;59.904;10.738;2023-04-05T06:48:26;3.45;;;1.70;;
74293;SDS011;64044;59.904;10.738;2023-04-05T06:53:45;3.42;;;1.65;;
74293;SDS011;64044;59.904;10.738;2023-04-05T06:56:11;4.22;;;1.75;;
74293;SDS011;64044;59.904;10.738;2023-04-05T06:58:36;4.35;;;1.73;;
74293;SDS011;64044;59.904;10.738;2023-04-05T07:01:03;20.67;;;2.40;;
74293;SDS011;64044;59.904;10.738;2023-04-05T07:03:29;3.80;;;1.80;;
74293;SDS011;64044;59.904;10.738;2023-04-05T07:05:57;4.60;;;1.85;;
74293;SDS011;64044;59.904;10.738;2023-04-05T07:08:24;3.45;;;1.70;;
74293;SDS011;64044;59.904;10.738;2023-04-05T07:10:51;9.07;;;1.80;;
74293;SDS011;64044;59.904;10.738;2023-04-05T07:13:17;4.15;;;1.60;;
74293;SDS011;64044;59.904;10.738;2023-04-05T07:15:44;2.38;;;1.40;;
74293;SDS011;64044;59.904;10.738;2023-04-05T07:18:10;4.78;;;1.90;;
74293;SDS011;64044;59.904;10.738;2023-04-05T07:20:37;6.30;;;2.00;;
74293;SDS011;64044;59.904;10.738;2023-04-05T07:23:03;4.97;;;1.95;;
74293;SDS011;64044;59.904;10.738;2023-04-05T07:25:30;5.90;;;1.75;;
74293;SDS011;64044;59.904;10.738;2023-04-05T07:27:56;10.93;;;2.25;;
74293;SDS011;64044;59.904;10.738;2023-04-05T07:30:22;7.93;;;2.13;;
74293;SDS011;64044;59.904;10.738;2023-04-05T07:32:47;3.88;;;1.83;;
74293;SDS011;64044;59.904;10.738;2023-04-05T07:35:13;3.17;;;1.50;;
74293;SDS011;64044;59.904;10.738;2023-04-05T07:37:39;4.53;;;1.58;;
74293;SDS011;64044;59.904;10.738;2023-04-05T07:40:05;4.45;;;1.55;;
74293;SDS011;64044;59.904;10.738;2023-04-05T07:42:31;3.15;;;1.83;;
74293;SDS011;64044;59.904;10.738;2023-04-05T07:44:57;4.15;;;1.52;;
74293;SDS011;64044;59.904;10.738;2023-04-05T07:47:23;2.80;;;1.75;;
74293;SDS011;64044;59.904;10.738;2023-04-05T07:49:49;5.40;;;1.90;;
74293;SDS011;64044;59.904;10.738;2023-04-05T07:52:14;4.40;;;1.98;;
74293;SDS011;64044;59.904;10.738;2023-04-05T07:54:40;4.18;;;1.60;;
74293;SDS011;64044;59.904;10.738;2023-04-05T07:57:07;3.67;;;1.70;;
74293;SDS011;64044;59.904;10.738;2023-04-05T07:59:34;4.60;;;1.50;;
74293;SDS011;64044;59.904;10.738;2023-04-05T08:02:00;3.33;;;1.58;;
74293;SDS011;64044;59.904;10.738;2023-04-05T08:04:26;5.95;;;1.83;;
74293;SDS011;64044;59.904;10.738;2023-04-05T08:06:51;7.35;;;1.58;;
74293;SDS011;64044;59.904;10.738;2023-04-05T08:09:17;5.82;;;2.10;;
74293;SDS011;64044;59.904;10.738;2023-04-05T08:11:43;11.90;;;1.60;;
74293;SDS011;64044;59.904;10.738;2023-04-05T08:14:08;4.68;;;1.70;;
74293;SDS011;64044;59.904;10.738;2023-04-05T08:16:34;5.93;;;1.63;;
74293;SDS011;64044;59.904;10.738;2023-04-05T08:19:00;3.05;;;1.83;;
74293;SDS011;64044;59.904;10.738;2023-04-05T08:21:26;6.10;;;2.65;;
74293;SDS011;64044;59.904;10.738;2023-04-05T08:23:51;4.25;;;2.00;;
74293;SDS011;64044;59.904;10.738;2023-04-05T08:26:17;5.10;;;1.90;;
74293;SDS011;64044;59.904;10.738;2023-04-05T08:28:43;3.78;;;1.92;;
74293;SDS011;64044;59.904;10.738;2023-04-05T08:31:08;3.40;;;2.40;;
74293;SDS011;64044;59.904;10.738;2023-04-05T08:33:35;7.85;;;2.20;;
74293;SDS011;64044;59.904;10.738;2023-04-05T08:36:04;9.27;;;2.85;;
74293;SDS011;64044;59.904;10.738;2023-04-05T08:38:33;4.65;;;2.33;;
74293;SDS011;64044;59.904;10.738;2023-04-05T08:41:25;7.10;;;2.53;;
74293;SDS011;64044;59.904;10.738;2023-04-05T08:43:55;12.50;;;2.25;;
74293;SDS011;64044;59.904;10.738;2023-04-05T08:46:22;4.13;;;2.10;;
74293;SDS011;64044;59.904;10.738;2023-04-05T08:48:48;4.55;;;2.55;;
74293;SDS011;64044;59.904;10.738;2023-04-05T08:51:21;4.07;;;2.10;;
74293;SDS011;64044;59.904;10.738;2023-04-05T08:53:48;5.13;;;1.92;;
74293;SDS011;64044;59.904;10.738;2023-04-05T08:56:15;7.75;;;2.08;;
74293;SDS011;64044;59.904;10.738;2023-04-05T08:58:47;8.90;;;2.33;;
74293;SDS011;64044;59.904;10.738;2023-04-05T09:01:28;12.38;;;3.40;;
74293;SDS011;64044;59.904;10.738;2023-04-05T09:03:59;3.92;;;1.88;;
74293;SDS011;64044;59.904;10.738;2023-04-05T09:06:26;3.22;;;2.42;;
74293;SDS011;64044;59.904;10.738;2023-04-05T09:08:54;4.70;;;1.63;;
74293;SDS011;64044;59.904;10.738;2023-04-05T09:11:22;2.33;;;1.60;;
74293;SDS011;64044;59.904;10.738;2023-04-05T09:13:48;3.75;;;1.40;;
74293;SDS011;64044;59.904;10.738;2023-04-05T09:16:15;3.75;;;1.65;;
74293;SDS011;64044;59.904;10.738;2023-04-05T09:18:41;8.20;;;2.10;;
74293;SDS011;64044;59.904;10.738;2023-04-05T09:21:07;4.97;;;1.90;;
74293;SDS011;64044;59.904;10.738;2023-04-05T09:23:34;7.05;;;1.63;;
74293;SDS011;64044;59.904;10.738;2023-04-05T09:26:00;6.65;;;2.17;;
74293;SDS011;64044;59.904;10.738;2023-04-05T09:28:41;16.92;;;2.38;;
74293;SDS011;64044;59.904;10.738;2023-04-05T09:31:07;1.92;;;1.05;;
74293;SDS011;64044;59.904;10.738;2023-04-05T09:33:33;4.78;;;1.40;;
74293;SDS011;64044;59.904;10.738;2023-04-05T09:35:59;4.53;;;1.23;;
74293;SDS011;64044;59.904;10.738;2023-04-05T09:41:10;2.08;;;0.98;;
74293;SDS011;64044;59.904;10.738;2023-04-05T09:43:37;2.65;;;0.98;;
74293;SDS011;64044;59.904;10.738;2023-04-05T09:46:03;6.05;;;1.95;;
74293;SDS011;64044;59.904;10.738;2023-04-05T09:51:14;2.10;;;1.15;;
74293;SDS011;64044;59.904;10.738;2023-04-05T09:56:30;4.22;;;1.27;;
74293;SDS011;64044;59.904;10.738;2023-04-05T09:58:59;3.50;;;1.50;;
74293;SDS011;64044;59.904;10.738;2023-04-05T10:01:27;3.40;;;1.10;;
74293;SDS011;64044;59.904;10.738;2023-04-05T10:03:55;9.07;;;1.77;;
74293;SDS011;64044;59.904;10.738;2023-04-05T10:06:23;3.15;;;1.30;;
74293;SDS011;64044;59.904;10.738;2023-04-05T10:08:58;5.07;;;1.38;;
74293;SDS011;64044;59.904;10.738;2023-04-05T10:11:24;4.50;;;1.67;;
74293;SDS011;64044;59.904;10.738;2023-04-05T10:13:51;4.13;;;1.38;;
74293;SDS011;64044;59.904;10.738;2023-04-05T10:16:19;6.38;;;1.70;;
74293;SDS011;64044;59.904;10.738;2023-04-05T10:18:50;4.40;;;1.73;;
74293;SDS011;64044;59.904;10.738;2023-04-05T10:21:21;8.27;;;1.90;;
74293;SDS011;64044;59.904;10.738;2023-04-05T10:23:52;6.72;;;1.70;;
74293;SDS011;64044;59.904;10.738;2023-04-05T10:29:15;4.10;;;1.52;;
74293;SDS011;64044;59.904;10.738;2023-04-05T10:31:50;7.57;;;1.95;;
74293;SDS011;64044;59.904;10.738;2023-04-05T10:34:30;6.90;;;1.60;;
74293;SDS011;64044;59.904;10.738;2023-04-05T10:37:06;4.70;;;1.60;;
74293;SDS011;64044;59.904;10.738;2023-04-05T10:39:36;3.35;;;1.73;;
74293;SDS011;64044;59.904;10.738;2023-04-05T10:42:17;7.28;;;1.60;;
74293;SDS011;64044;59.904;10.738;2023-04-05T10:44:45;3.08;;;1.15;;
74293;SDS011;64044;59.904;10.738;2023-04-05T10:47:18;3.28;;;1.52;;
74293;SDS011;64044;59.904;10.738;2023-04-05T10:49:55;3.40;;;1.48;;
74293;SDS011;64044;59.904;10.738;2023-04-05T10:52:24;5.65;;;1.60;;
74293;SDS011;64044;59.904;10.738;2023-04-05T10:54:51;4.53;;;1.48;;
74293;SDS011;64044;59.904;10.738;2023-04-05T10:57:20;3.75;;;1.85;;
74293;SDS011;64044;59.904;10.738;2023-04-05T10:59:48;4.70;;;1.50;;
74293;SDS011;64044;59.904;10.738;2023-04-05T11:02:15;5.78;;;1.80;;
74293;SDS011;64044;59.904;10.738;2023-04-05T11:04:42;5.80;;;1.30;;
74293;SDS011;64044;59.904;10.738;2023-04-05T11:18:05;4.07;;;1.38;;
74293;SDS011;64044;59.904;10.738;2023-04-05T11:20:44;2.78;;;1.23;;
74293;SDS011;64044;59.904;10.738;2023-04-05T11:23:17;2.38;;;1.30;;
74293;SDS011;64044;59.904;10.738;2023-04-05T11:25:54;2.80;;;1.50;;
74293;SDS011;64044;59.904;10.738;2023-04-05T11:28:44;6.15;;;1.40;;
74293;SDS011;64044;59.904;10.738;2023-04-05T11:31:13;2.00;;;1.20;;
74293;SDS011;64044;59.904;10.738;2023-04-05T11:36:09;4.75;;;1.20;;
74293;SDS011;64044;59.904;10.738;2023-04-05T11:38:37;4.68;;;1.10;;
74293;SDS011;64044;59.904;10.738;2023-04-05T11:41:05;1.58;;;0.90;;
74293;SDS011;64044;59.904;10.738;2023-04-05T11:43:32;2.20;;;0.85;;
74293;SDS011;64044;59.904;10.738;2023-04-05T11:46:02;1.33;;;1.10;;
74293;SDS011;64044;59.904;10.738;2023-04-05T11:48:29;1.05;;;0.93;;
74293;SDS011;64044;59.904;10.738;2023-04-05T11:50:55;2.75;;;0.85;;
74293;SDS011;64044;59.904;10.738;2023-04-05T11:53:21;1.65;;;0.98;;
74293;SDS011;64044;59.904;10.738;2023-04-05T11:55:48;2.33;;;1.10;;
74293;SDS011;64044;59.904;10.738;2023-04-05T12:00:43;1.85;;;1.05;;
74293;SDS011;64044;59.904;10.738;2023-04-05T12:03:10;3.60;;;1.40;;
74293;SDS011;64044;59.904;10.738;2023-04-05T12:05:46;19.23;;;2.67;;
74293;SDS011;64044;59.904;10.738;2023-04-05T12:08:12;2.25;;;0.88;;
74293;SDS011;64044;59.904;10.738;2023-04-05T12:10:38;1.20;;;0.73;;
74293;SDS011;64044;59.904;10.738;2023-04-05T12:13:04;3.25;;;0.80;;
74293;SDS011;64044;59.904;10.738;2023-04-05T12:15:29;1.30;;;0.60;;
74293;SDS011;64044;59.904;10.738;2023-04-05T12:17:55;1.20;;;0.60;;
74293;SDS011;64044;59.904;10.738;2023-04-05T12:20:22;1.38;;;0.60;;
74293;SDS011;64044;59.904;10.738;2023-04-05T12:22:49;0.40;;;0.40;;
74293;SDS011;64044;59.904;10.738;2023-04-05T12:25:17;4.53;;;0.88;;
74293;SDS011;64044;59.904;10.738;2023-04-05T12:27:43;2.03;;;0.70;;
74293;SDS011;64044;59.904;10.738;2023-04-05T12:32:41;7.13;;;1.25;;
74293;SDS011;64044;59.904;10.738;2023-04-05T12:35:12;2.50;;;1.20;;
74293;SDS011;64044;59.904;10.738;2023-04-05T12:37:42;2.55;;;1.45;;
74293;SDS011;64044;59.904;10.738;2023-04-05T12:40:08;1.38;;;1.00;;
74293;SDS011;64044;59.904;10.738;2023-04-05T12:42:35;3.67;;;1.15;;
74293;SDS011;64044;59.904;10.738;2023-04-05T12:45:02;1.70;;;1.20;;
74293;SDS011;64044;59.904;10.738;2023-04-05T12:47:34;1.98;;;1.20;;
74293;SDS011;64044;59.904;10.738;2023-04-05T12:50:13;1.45;;;0.90;;
74293;SDS011;64044;59.904;10.738;2023-04-05T12:52:53;0.60;;;0.60;;
74293;SDS011;64044;59.904;10.738;2023-04-05T12:55:23;1.92;;;0.52;;
74293;SDS011;64044;59.904;10.738;2023-04-05T12:57:52;0.70;;;0.60;;
74293;SDS011;64044;59.904;10.738;2023-04-05T13:00:20;1.03;;;0.47;;
74293;SDS011;64044;59.904;10.738;2023-04-05T13:02:50;0.60;;;0.40;;
74293;SDS011;64044;59.904;10.738;2023-04-05T13:05:18;0.40;;;0.32;;
74293;SDS011;64044;59.904;10.738;2023-04-05T13:07:53;0.57;;;0.43;;
74293;SDS011;64044;59.904;10.738;2023-04-05T13:10:21;1.08;;;0.50;;
74293;SDS011;64044;59.904;10.738;2023-04-05T13:12:48;1.98;;;0.65;;
74293;SDS011;64044;59.904;10.738;2023-04-05T13:15:15;0.38;;;0.30;;
74293;SDS011;64044;59.904;10.738;2023-04-05T13:17:41;0.80;;;0.45;;
74293;SDS011;64044;59.904;10.738;2023-04-05T13:20:09;1.52;;;0.60;;
74293;SDS011;64044;59.904;10.738;2023-04-05T13:22:35;1.42;;;0.60;;
74293;SDS011;64044;59.904;10.738;2023-04-05T13:25:01;0.77;;;0.40;;
74293;SDS011;64044;59.904;10.738;2023-04-05T13:27:28;1.15;;;0.70;;
74293;SDS011;64044;59.904;10.738;2023-04-05T13:29:54;1.25;;;1.10;;
74293;SDS011;64044;59.904;10.738;2023-04-05T13:32:20;2.03;;;0.77;;
74293;SDS011;64044;59.904;10.738;2023-04-05T13:34:45;1.02;;;0.70;;
74293;SDS011;64044;59.904;10.738;2023-04-05T13:37:12;0.60;;;0.60;;
74293;SDS011;64044;59.904;10.738;2023-04-05T13:39:38;1.42;;;0.63;;
74293;SDS011;64044;59.904;10.738;2023-04-05T13:42:04;2.95;;;0.70;;
74293;SDS011;64044;59.904;10.738;2023-04-05T13:44:30;0.98;;;0.50;;
74293;SDS011;64044;59.904;10.738;2023-04-05T13:46:56;1.15;;;0.60;;
74293;SDS011;64044;59.904;10.738;2023-04-05T13:49:21;2.00;;;0.60;;
74293;SDS011;64044;59.904;10.738;2023-04-05T13:51:47;0.80;;;0.40;;
74293;SDS011;64044;59.904;10.738;2023-04-05T13:54:13;0.85;;;0.47;;
74293;SDS011;64044;59.904;10.738;2023-04-05T13:56:39;1.63;;;0.80;;
74293;SDS011;64044;59.904;10.738;2023-04-05T13:59:05;0.47;;;0.40;;
74293;SDS011;64044;59.904;10.738;2023-04-05T14:01:34;0.90;;;0.60;;
74293;SDS011;64044;59.904;10.738;2023-04-05T14:04:00;1.20;;;0.70;;
74293;SDS011;64044;59.904;10.738;2023-04-05T14:06:26;1.67;;;0.32;;
74293;SDS011;64044;59.904;10.738;2023-04-05T14:08:52;1.83;;;0.50;;
74293;SDS011;64044;59.904;10.738;2023-04-05T14:11:21;1.60;;;0.50;;
74293;SDS011;64044;59.904;10.738;2023-04-05T14:13:47;5.20;;;0.55;;
74293;SDS011;64044;59.904;10.738;2023-04-05T14:16:14;2.05;;;0.88;;
74293;SDS011;64044;59.904;10.738;2023-04-05T14:18:40;2.08;;;1.00;;
74293;SDS011;64044;59.904;10.738;2023-04-05T14:21:05;1.48;;;0.40;;
74293;SDS011;64044;59.904;10.738;2023-04-05T14:23:31;3.50;;;0.75;;
74293;SDS011;64044;59.904;10.738;2023-04-05T14:25:57;0.93;;;0.40;;
74293;SDS011;64044;59.904;10.738;2023-04-05T14:28:23;1.50;;;0.57;;
74293;SDS011;64044;59.904;10.738;2023-04-05T14:30:49;0.38;;;0.20;;
74293;SDS011;64044;59.904;10.738;2023-04-05T14:33:15;0.68;;;0.35;;
74293;SDS011;64044;59.904;10.738;2023-04-05T14:35:41;0.75;;;0.45;;
74293;SDS011;64044;59.904;10.738;2023-04-05T14:38:07;0.60;;;0.60;;
74293;SDS011;64044;59.904;10.738;2023-04-05T14:40:33;1.13;;;0.40;;
74293;SDS011;64044;59.904;10.738;2023-04-05T14:42:59;3.70;;;1.33;;
74293;SDS011;64044;59.904;10.738;2023-04-05T14:45:24;0.68;;;0.40;;
74293;SDS011;64044;59.904;10.738;2023-04-05T14:47:53;0.80;;;0.50;;
74293;SDS011;64044;59.904;10.738;2023-04-05T14:50:19;1.00;;;0.60;;
74293;SDS011;64044;59.904;10.738;2023-04-05T14:52:45;3.53;;;0.73;;
74293;SDS011;64044;59.904;10.738;2023-04-05T14:55:11;2.63;;;0.50;;
74293;SDS011;64044;59.904;10.738;2023-04-05T14:57:40;1.10;;;0.65;;
74293;SDS011;64044;59.904;10.738;2023-04-05T15:00:06;1.08;;;0.73;;
74293;SDS011;64044;59.904;10.738;2023-04-05T15:02:36;2.08;;;0.60;;
74293;SDS011;64044;59.904;10.738;2023-04-05T15:05:03;1.63;;;0.47;;
74293;SDS011;64044;59.904;10.738;2023-04-05T15:07:29;1.50;;;0.77;;
74293;SDS011;64044;59.904;10.738;2023-04-05T15:09:55;0.40;;;0.35;;
74293;SDS011;64044;59.904;10.738;2023-04-05T15:12:21;0.70;;;0.50;;
74293;SDS011;64044;59.904;10.738;2023-04-05T15:14:47;1.00;;;0.50;;
74293;SDS011;64044;59.904;10.738;2023-04-05T15:17:15;1.20;;;0.75;;
74293;SDS011;64044;59.904;10.738;2023-04-05T15:19:41;1.48;;;0.45;;
74293;SDS011;64044;59.904;10.738;2023-04-05T15:22:07;0.52;;;0.50;;
74293;SDS011;64044;59.904;10.738;2023-04-05T15:24:33;1.88;;;0.50;;
74293;SDS011;64044;59.904;10.738;2023-04-05T15:27:01;2.25;;;1.20;;